Time;durP1;ratioP1;P1;durP2;ratioP2;P2;SDS_P1;SDS_P2;PMS_P1;PMS_P2;Temp;Humidity;BMP_temperature;BMP_pressure;BME280_temperature;BME280_humidity;BME280_pressure;Samples;Min_cycle;Max_cycle;Signal;HPM_P1;HPM_P2
2022/10/18 00:01:06;;;;;;;33.03;17.13;;;14.50;99.90;;;;;;5084661;28;20225;-53
2022/10/18 00:03:33;;;;;;;27.37;16.90;;;14.50;99.90;;;;;;5093304;28;20181;-53
2022/10/18 00:05:58;;;;;;;32.87;16.07;;;14.50;99.90;;;;;;5089374;28;20953;-53
2022/10/18 00:08:25;;;;;;;31.00;17.93;;;14.40;99.90;;;;;;5092571;28;20442;-53
2022/10/18 00:10:51;;;;;;;32.50;16.90;;;14.40;99.90;;;;;;5101978;28;20246;-52
2022/10/18 00:13:17;;;;;;;36.70;17.70;;;14.40;99.90;;;;;;5095851;28;20434;-53
2022/10/18 00:15:53;;;;;;;32.20;16.80;;;14.40;99.90;;;;;;5092205;28;20192;-52
2022/10/18 00:18:19;;;;;;;32.57;17.40;;;14.40;99.90;;;;;;5098253;28;20533;-53
2022/10/18 00:20:54;;;;;;;37.20;17.30;;;14.40;99.90;;;;;;5092756;28;20473;-52
2022/10/18 00:23:20;;;;;;;30.40;16.87;;;14.30;99.90;;;;;;5091721;28;20441;-53
2022/10/18 00:25:45;;;;;;;29.27;16.20;;;14.30;99.90;;;;;;5098467;28;20721;-52
2022/10/18 00:28:11;;;;;;;32.67;17.13;;;14.40;99.90;;;;;;5099435;28;20189;-52
2022/10/18 00:30:36;;;;;;;30.60;16.43;;;14.40;99.90;;;;;;5089854;28;20867;-52
2022/10/18 00:33:02;;;;;;;31.37;16.70;;;14.30;99.90;;;;;;5100960;28;20188;-51
2022/10/18 00:35:28;;;;;;;38.30;18.83;;;14.30;99.90;;;;;;5090705;28;20639;-52
2022/10/18 00:37:53;;;;;;;32.17;17.17;;;14.30;99.90;;;;;;5093914;28;20278;-53
2022/10/18 00:40:19;;;;;;;34.70;16.70;;;14.20;99.90;;;;;;5097173;28;20220;-52
2022/10/18 00:42:44;;;;;;;27.60;16.70;;;14.20;99.90;;;;;;5098684;28;20187;-52
2022/10/18 00:45:23;;;;;;;32.00;17.60;;;14.20;99.90;;;;;;5122549;27;20200;-53
2022/10/18 00:48:00;;;;;;;28.93;16.63;;;14.20;99.90;;;;;;5103463;28;20219;-53
2022/10/18 00:50:28;;;;;;;30.07;18.13;;;14.20;99.90;;;;;;5090473;28;20775;-52
2022/10/18 00:52:57;;;;;;;33.80;17.23;;;14.20;99.90;;;;;;5092490;28;20790;-52
2022/10/18 00:55:26;;;;;;;28.27;16.60;;;14.20;99.90;;;;;;5093713;28;20438;-53
2022/10/18 00:57:52;;;;;;;37.67;17.47;;;14.20;99.90;;;;;;5092973;28;20442;-53
2022/10/18 01:00:18;;;;;;;32.27;18.50;;;14.20;99.90;;;;;;5092298;28;20473;-52
2022/10/18 01:02:45;;;;;;;29.37;17.70;;;14.10;99.90;;;;;;5087931;28;20439;-53
2022/10/18 01:05:13;;;;;;;41.47;18.73;;;14.10;99.90;;;;;;5095017;28;20181;-53
2022/10/18 01:08:06;;;;;;;37.53;18.93;;;14.10;99.90;;;;;;5118767;27;20435;-53
2022/10/18 01:10:41;;;;;;;35.00;18.40;;;14.10;99.90;;;;;;5117546;27;20531;-52
2022/10/18 01:13:22;;;;;;;35.43;19.10;;;14.00;99.90;;;;;;5085519;28;20441;-53
2022/10/18 01:16:10;;;;;;;32.77;18.10;;;14.00;99.90;;;;;;5093857;28;20931;-52
2022/10/18 01:19:05;;;;;;;45.13;21.87;;;14.00;99.90;;;;;;5093048;28;20426;-53
2022/10/18 01:21:37;;;;;;;38.63;20.13;;;13.90;99.90;;;;;;5077675;28;20430;-52
2022/10/18 01:24:25;;;;;;;38.23;19.70;;;13.90;99.90;;;;;;5090768;28;20430;-53
2022/10/18 01:27:11;;;;;;;37.33;19.13;;;13.90;99.90;;;;;;5090295;28;20494;-53
2022/10/18 01:29:50;;;;;;;42.87;21.30;;;13.90;99.90;;;;;;5089151;28;20870;-53
2022/10/18 01:32:23;;;;;;;39.63;21.30;;;13.90;99.90;;;;;;5090822;28;20503;-53
2022/10/18 01:34:53;;;;;;;42.73;21.13;;;14.00;99.90;;;;;;5101155;28;20914;-46
2022/10/18 01:37:21;;;;;;;49.67;21.60;;;14.00;99.90;;;;;;5089973;28;20436;-46
2022/10/18 01:39:49;;;;;;;40.00;21.77;;;13.90;99.90;;;;;;5089165;28;20475;-46
2022/10/18 01:42:19;;;;;;;38.80;21.47;;;13.90;99.90;;;;;;5093215;28;20435;-46
2022/10/18 01:44:46;;;;;;;43.60;21.77;;;13.90;99.90;;;;;;5095732;28;20434;-46
2022/10/18 01:47:14;;;;;;;57.20;22.93;;;13.90;99.90;;;;;;5106999;27;20466;-46
2022/10/18 01:49:39;;;;;;;44.20;20.90;;;14.00;99.90;;;;;;5089692;28;21014;-46
2022/10/18 01:52:05;;;;;;;42.10;20.90;;;13.90;99.90;;;;;;5090026;28;20526;-46
2022/10/18 01:54:38;;;;;;;44.97;22.90;;;13.90;99.90;;;;;;5091785;28;20628;-46
2022/10/18 01:57:38;;;;;;;44.17;22.67;;;13.90;99.90;;;;;;5090400;28;21314;-46
2022/10/18 02:00:18;;;;;;;47.50;22.30;;;14.00;99.90;;;;;;5087362;28;20520;-46
2022/10/18 02:02:55;;;;;;;42.57;22.47;;;14.00;99.90;;;;;;5090880;28;20545;-46
2022/10/18 02:05:51;;;;;;;47.20;23.00;;;14.00;99.90;;;;;;5091654;28;20418;-46
2022/10/18 02:09:02;;;;;;;46.90;23.97;;;14.00;99.90;;;;;;5090648;28;20469;-46
2022/10/18 02:11:29;;;;;;;43.50;20.73;;;13.90;99.90;;;;;;5085977;28;20990;-46
2022/10/18 02:14:07;;;;;;;50.27;23.20;;;13.90;99.90;;;;;;5085692;28;20550;-47
2022/10/18 02:16:49;;;;;;;51.97;24.33;;;13.90;99.90;;;;;;5089124;28;21027;-47
2022/10/18 02:19:23;;;;;;;48.07;24.10;;;13.90;99.90;;;;;;5081897;28;20443;-46
2022/10/18 02:21:51;;;;;;;50.03;24.60;;;13.80;99.90;;;;;;5080913;28;20467;-47
2022/10/18 02:24:20;;;;;;;42.20;22.60;;;13.80;99.90;;;;;;5088404;28;20521;-46
2022/10/18 02:26:45;;;;;;;56.67;25.17;;;13.80;99.90;;;;;;5090194;28;20501;-46
2022/10/18 02:29:12;;;;;;;57.70;25.37;;;13.80;99.90;;;;;;5083495;28;20964;-46
2022/10/18 02:31:47;;;;;;;60.13;26.90;;;13.80;99.90;;;;;;5092399;28;20506;-46
2022/10/18 02:34:25;;;;;;;59.80;25.57;;;13.80;99.90;;;;;;5096945;28;20442;-46
2022/10/18 02:36:54;;;;;;;53.70;25.60;;;13.80;99.90;;;;;;5090364;28;20438;-46
2022/10/18 02:39:23;;;;;;;51.33;23.90;;;13.70;99.90;;;;;;5089745;28;20894;-47
2022/10/18 02:41:49;;;;;;;61.77;25.40;;;13.70;99.90;;;;;;5090672;28;20496;-46
2022/10/18 02:44:15;;;;;;;61.50;27.17;;;13.70;99.90;;;;;;5089877;28;20442;-46
2022/10/18 02:46:40;;;;;;;66.27;26.40;;;13.80;99.90;;;;;;5092576;28;20653;-47
2022/10/18 02:49:06;;;;;;;57.40;26.27;;;13.80;99.90;;;;;;5093076;28;21141;-46
2022/10/18 02:51:32;;;;;;;61.50;27.43;;;13.80;99.90;;;;;;5091270;28;20189;-46
2022/10/18 02:53:57;;;;;;;63.20;26.90;;;13.80;99.90;;;;;;5089894;28;20242;-46
2022/10/18 02:56:23;;;;;;;59.63;28.20;;;13.80;99.90;;;;;;5088903;28;20264;-46
2022/10/18 02:58:48;;;;;;;62.23;27.00;;;13.80;99.90;;;;;;5089393;28;20969;-46
2022/10/18 03:01:14;;;;;;;56.30;25.83;;;13.80;99.90;;;;;;5088684;28;20212;-46
2022/10/18 03:03:39;;;;;;;63.20;27.00;;;13.80;99.90;;;;;;5094043;28;20196;-46
2022/10/18 03:06:05;;;;;;;55.53;25.80;;;13.80;99.90;;;;;;5100693;28;20192;-46
2022/10/18 03:08:31;;;;;;;59.03;27.50;;;13.80;99.90;;;;;;5089058;28;20196;-46
2022/10/18 03:10:56;;;;;;;61.00;28.43;;;13.80;99.90;;;;;;5089818;28;20789;-46
2022/10/18 03:13:22;;;;;;;62.70;30.13;;;13.80;99.90;;;;;;5088645;28;20223;-47
2022/10/18 03:15:47;;;;;;;62.30;27.90;;;13.70;99.90;;;;;;5092156;28;20211;-46
2022/10/18 03:18:14;;;;;;;59.10;28.90;;;13.80;99.90;;;;;;5086545;28;20265;-46
2022/10/18 03:20:40;;;;;;;58.23;28.10;;;13.80;99.90;;;;;;5089166;28;20623;-46
2022/10/18 03:23:06;;;;;;;71.83;29.07;;;13.80;99.90;;;;;;5094867;28;20438;-46
2022/10/18 03:25:32;;;;;;;76.20;28.80;;;13.90;99.90;;;;;;5093348;28;20996;-46
2022/10/18 03:27:58;;;;;;;64.27;28.07;;;13.80;99.90;;;;;;5092808;28;20916;-46
2022/10/18 03:30:23;;;;;;;62.63;27.10;;;13.80;99.90;;;;;;5092693;28;20446;-46
2022/10/18 03:32:49;;;;;;;63.20;27.27;;;13.80;99.90;;;;;;5098356;28;20276;-46
2022/10/18 03:35:15;;;;;;;55.83;25.27;;;13.80;99.90;;;;;;5093751;28;20264;-46
2022/10/18 03:37:40;;;;;;;56.10;26.50;;;13.70;99.90;;;;;;5091007;28;20534;-46
2022/10/18 03:40:07;;;;;;;59.43;25.30;;;13.70;99.90;;;;;;5097630;28;20214;-47
2022/10/18 03:42:32;;;;;;;53.20;24.53;;;13.60;99.90;;;;;;5092542;28;20322;-46
2022/10/18 03:44:58;;;;;;;46.30;24.10;;;13.60;99.90;;;;;;5097635;28;20508;-46
2022/10/18 03:47:23;;;;;;;65.13;26.27;;;13.50;99.90;;;;;;5090676;28;20173;-46
2022/10/18 03:49:49;;;;;;;55.33;24.33;;;13.50;99.90;;;;;;5122716;27;20200;-46
2022/10/18 03:52:14;;;;;;;51.60;25.40;;;13.40;99.90;;;;;;5089758;28;20197;-47
2022/10/18 03:54:40;;;;;;;60.63;25.87;;;13.40;99.90;;;;;;5097342;28;20231;-46
2022/10/18 03:57:06;;;;;;;63.87;25.40;;;13.30;99.90;;;;;;5091460;28;20198;-46
2022/10/18 03:59:31;;;;;;;54.60;23.40;;;13.40;99.90;;;;;;5092768;28;20208;-47
2022/10/18 04:01:57;;;;;;;53.80;25.70;;;13.30;99.90;;;;;;5093343;28;20184;-46
2022/10/18 04:04:22;;;;;;;52.30;25.60;;;13.20;99.90;;;;;;5091975;28;20185;-46
2022/10/18 04:06:48;;;;;;;64.43;26.63;;;13.20;99.90;;;;;;5097705;28;20216;-53
2022/10/18 04:09:14;;;;;;;60.10;26.10;;;13.20;99.90;;;;;;5094339;28;20198;-47
2022/10/18 04:11:39;;;;;;;57.40;26.67;;;13.20;99.90;;;;;;5091415;28;20196;-46
2022/10/18 04:14:05;;;;;;;63.27;27.10;;;13.20;99.90;;;;;;5091964;28;20220;-46
2022/10/18 04:16:30;;;;;;;60.87;26.67;;;13.20;99.90;;;;;;5090695;28;20200;-46
2022/10/18 04:18:56;;;;;;;73.70;28.73;;;13.30;99.90;;;;;;5089139;28;20276;-46
2022/10/18 04:21:22;;;;;;;71.03;27.67;;;13.30;99.90;;;;;;5093739;28;20212;-46
2022/10/18 04:23:48;;;;;;;76.00;29.70;;;13.30;99.90;;;;;;5092059;28;20197;-46
2022/10/18 04:26:15;;;;;;;72.03;28.30;;;13.30;99.90;;;;;;5090852;28;20189;-46
2022/10/18 04:28:42;;;;;;;76.33;30.13;;;13.30;99.90;;;;;;5086525;28;20458;-46
2022/10/18 04:31:08;;;;;;;72.17;29.67;;;13.30;99.90;;;;;;5093978;28;20442;-46
2022/10/18 04:33:34;;;;;;;72.77;29.40;;;13.30;99.90;;;;;;5101674;28;20497;-47
2022/10/18 04:36:00;;;;;;;74.70;30.30;;;13.30;99.90;;;;;;5091706;28;20486;-46
2022/10/18 04:38:26;;;;;;;74.73;29.50;;;13.30;99.90;;;;;;5088935;28;20204;-46
2022/10/18 04:40:51;;;;;;;85.50;32.40;;;13.30;99.90;;;;;;5097355;28;20470;-46
2022/10/18 04:43:17;;;;;;;85.00;29.77;;;13.30;99.90;;;;;;5092772;28;20244;-46
2022/10/18 04:45:47;;;;;;;74.83;28.20;;;13.40;99.90;;;;;;5092145;28;20661;-47
2022/10/18 04:48:13;;;;;;;77.33;29.40;;;13.40;99.90;;;;;;5086732;28;20192;-46
2022/10/18 04:50:39;;;;;;;74.87;31.07;;;13.40;99.90;;;;;;5095501;28;21061;-46
2022/10/18 04:53:04;;;;;;;72.20;28.63;;;13.40;99.90;;;;;;5092815;28;20454;-46
2022/10/18 04:55:30;;;;;;;84.10;30.60;;;13.40;99.90;;;;;;5091811;28;20189;-46
2022/10/18 04:57:56;;;;;;;83.47;28.93;;;13.40;99.90;;;;;;5097316;28;20273;-46
2022/10/18 05:00:21;;;;;;;79.27;30.90;;;13.40;99.90;;;;;;5093326;28;20235;-47
2022/10/18 05:02:47;;;;;;;72.30;29.00;;;13.30;99.90;;;;;;5094248;28;20189;-46
2022/10/18 05:05:13;;;;;;;90.70;29.60;;;13.40;99.90;;;;;;5091563;28;20199;-46
2022/10/18 05:07:38;;;;;;;85.00;31.03;;;13.40;99.90;;;;;;5091545;28;20188;-47
2022/10/18 05:10:04;;;;;;;85.20;31.37;;;13.40;99.90;;;;;;5093959;28;20236;-46
2022/10/18 05:12:30;;;;;;;72.47;29.73;;;13.40;99.90;;;;;;5099548;28;20200;-47
2022/10/18 05:14:55;;;;;;;78.20;30.67;;;13.40;99.90;;;;;;5091638;28;20440;-47
2022/10/18 05:17:21;;;;;;;86.77;31.43;;;13.40;99.90;;;;;;5091254;28;20203;-46
2022/10/18 05:19:46;;;;;;;93.77;32.30;;;13.40;99.90;;;;;;5081835;28;20220;-46
2022/10/18 05:22:12;;;;;;;70.57;29.83;;;13.40;99.90;;;;;;5122456;27;20650;-46
2022/10/18 05:24:38;;;;;;;77.27;29.77;;;13.40;99.90;;;;;;5090898;28;21060;-46
2022/10/18 05:27:03;;;;;;;70.37;28.50;;;13.50;99.90;;;;;;5091735;28;20318;-46
2022/10/18 05:29:29;;;;;;;67.57;28.40;;;13.40;99.90;;;;;;5090577;28;20196;-46
2022/10/18 05:31:54;;;;;;;69.63;27.40;;;13.40;99.90;;;;;;5096852;28;20184;-46
2022/10/18 05:34:20;;;;;;;69.13;27.03;;;13.40;99.90;;;;;;5092586;28;20303;-46
2022/10/18 05:36:48;;;;;;;71.93;27.40;;;13.40;99.90;;;;;;5094001;28;20199;-46
2022/10/18 05:39:14;;;;;;;73.00;27.10;;;13.40;99.90;;;;;;5089846;28;20442;-46
2022/10/18 05:41:39;;;;;;;63.17;26.50;;;13.40;99.90;;;;;;5093566;28;20768;-46
2022/10/18 05:44:05;;;;;;;67.67;27.90;;;13.30;99.90;;;;;;5090470;28;20193;-46
2022/10/18 05:46:32;;;;;;;59.53;24.07;;;13.30;99.90;;;;;;5091876;28;20212;-46
2022/10/18 05:48:57;;;;;;;62.20;25.67;;;13.30;99.90;;;;;;5091188;28;20985;-46
2022/10/18 05:51:23;;;;;;;67.90;25.47;;;13.30;99.90;;;;;;5089960;28;20443;-46
2022/10/18 05:53:49;;;;;;;59.47;26.50;;;13.30;99.90;;;;;;5088611;28;20207;-47
2022/10/18 05:56:14;;;;;;;58.13;24.30;;;13.30;99.90;;;;;;5084518;28;20200;-46
2022/10/18 05:58:41;;;;;;;68.87;25.47;;;13.30;99.90;;;;;;5085322;28;20222;-46
2022/10/18 06:01:08;;;;;;;61.17;24.67;;;13.30;99.90;;;;;;5087275;28;20293;-46
2022/10/18 06:03:34;;;;;;;62.03;24.40;;;13.30;99.90;;;;;;5087277;28;20431;-46
2022/10/18 06:06:06;;;;;;;72.57;26.90;;;13.30;99.90;;;;;;5087979;28;20854;-46
2022/10/18 06:08:32;;;;;;;66.87;25.37;;;13.20;99.90;;;;;;5087956;28;20481;-46
2022/10/18 06:10:58;;;;;;;65.23;25.37;;;13.20;99.90;;;;;;5089657;28;20491;-46
2022/10/18 06:13:23;;;;;;;65.20;23.93;;;13.20;99.90;;;;;;5086768;28;20455;-46
2022/10/18 06:15:49;;;;;;;66.73;24.67;;;13.20;99.90;;;;;;5089631;28;20216;-46
2022/10/18 06:18:15;;;;;;;61.60;25.40;;;13.20;99.90;;;;;;5088201;28;20637;-46
2022/10/18 06:20:40;;;;;;;66.17;26.10;;;13.20;99.90;;;;;;5090282;28;20662;-46
2022/10/18 06:23:06;;;;;;;66.93;25.00;;;13.20;99.90;;;;;;5089908;28;20394;-46
2022/10/18 06:25:31;;;;;;;60.37;23.60;;;13.20;99.90;;;;;;5089061;28;20197;-46
2022/10/18 06:27:57;;;;;;;62.53;25.73;;;13.20;99.90;;;;;;5090149;28;20218;-46
2022/10/18 06:30:22;;;;;;;68.70;26.47;;;13.20;99.90;;;;;;5085607;28;20733;-46
2022/10/18 06:32:48;;;;;;;61.00;26.00;;;13.20;99.90;;;;;;5079526;28;20194;-47
2022/10/18 06:35:14;;;;;;;64.80;24.63;;;13.20;99.90;;;;;;5083906;28;20188;-46
2022/10/18 06:37:39;;;;;;;60.10;25.00;;;13.30;99.90;;;;;;5082846;28;20284;-46
2022/10/18 06:40:05;;;;;;;63.97;25.07;;;13.20;99.90;;;;;;5086164;28;20216;-46
2022/10/18 06:42:31;;;;;;;57.00;23.40;;;13.30;99.90;;;;;;5082998;28;20185;-46
2022/10/18 06:44:57;;;;;;;54.43;23.33;;;13.30;99.90;;;;;;5085606;28;20801;-47
2022/10/18 06:47:23;;;;;;;62.70;25.43;;;13.30;99.90;;;;;;5090413;28;20180;-47
2022/10/18 06:49:48;;;;;;;56.40;24.90;;;13.30;99.90;;;;;;5099082;28;20683;-46
2022/10/18 06:52:16;;;;;;;61.03;24.90;;;13.30;99.90;;;;;;5094006;28;20226;-46
2022/10/18 06:54:42;;;;;;;46.93;22.20;;;13.30;99.90;;;;;;5087611;28;20254;-46
2022/10/18 06:57:08;;;;;;;49.23;23.53;;;13.40;99.90;;;;;;5088305;28;20478;-46
2022/10/18 06:59:33;;;;;;;47.93;22.10;;;13.40;99.90;;;;;;5090977;28;20727;-46
2022/10/18 07:01:59;;;;;;;61.33;23.87;;;13.40;99.90;;;;;;5093627;28;20245;-46
2022/10/18 07:04:28;;;;;;;46.77;21.90;;;13.40;99.90;;;;;;5090983;28;20192;-46
2022/10/18 07:06:54;;;;;;;56.10;24.53;;;13.40;99.90;;;;;;5097602;28;20261;-46
2022/10/18 07:09:19;;;;;;;52.73;22.40;;;13.40;99.90;;;;;;5104832;28;20951;-46
2022/10/18 07:11:45;;;;;;;50.90;23.70;;;13.40;99.90;;;;;;5093044;28;20264;-46
2022/10/18 07:14:10;;;;;;;54.73;22.20;;;13.50;99.90;;;;;;5085425;28;20201;-46
2022/10/18 07:16:36;;;;;;;58.47;25.60;;;13.50;99.90;;;;;;5083039;28;20185;-46
2022/10/18 07:19:02;;;;;;;54.40;24.30;;;13.50;99.90;;;;;;5090870;28;20153;-46
2022/10/18 07:21:27;;;;;;;58.87;25.20;;;13.60;99.90;;;;;;5090333;28;20254;-46
2022/10/18 07:23:53;;;;;;;58.30;26.40;;;13.50;99.90;;;;;;5090065;28;22422;-46
2022/10/18 07:26:26;;;;;;;65.40;28.77;;;13.60;99.90;;;;;;5091878;28;20234;-46
2022/10/18 07:29:14;;;;;;;64.40;26.67;;;13.60;99.90;;;;;;5123243;28;20184;-46
2022/10/18 07:31:39;;;;;;;50.37;23.23;;;13.60;99.90;;;;;;5090742;28;20423;-46
2022/10/18 07:34:07;;;;;;;56.23;24.60;;;13.60;99.90;;;;;;5089732;28;20495;-46
2022/10/18 07:36:33;;;;;;;49.67;23.17;;;13.70;99.90;;;;;;5094083;28;20224;-46
2022/10/18 07:38:58;;;;;;;50.53;23.70;;;13.70;99.90;;;;;;5096675;28;20450;-46
2022/10/18 07:41:24;;;;;;;60.17;23.50;;;13.70;99.90;;;;;;5090536;28;20557;-46
2022/10/18 07:43:51;;;;;;;47.70;22.30;;;13.70;99.90;;;;;;5089372;28;20195;-46
2022/10/18 07:46:18;;;;;;;52.37;23.07;;;13.60;97.60;;;;;;5089736;28;20272;-46
2022/10/18 07:48:44;;;;;;;56.80;24.97;;;13.70;93.70;;;;;;5098130;28;20422;-46
2022/10/18 07:51:10;;;;;;;50.50;23.90;;;13.70;85.00;;;;;;5102492;28;20499;-46
2022/10/18 07:53:35;;;;;;;50.30;23.63;;;13.70;56.20;;;;;;5088637;28;20195;-46
2022/10/18 07:56:10;;;;;;;51.93;24.30;;;13.70;16.00;;;;;;5090768;28;20406;-45
2022/10/18 07:58:36;;;;;;;44.57;22.90;;;13.70;1.00;;;;;;5090255;28;20172;-46
2022/10/18 08:01:03;;;;;;;49.53;20.87;;;13.70;1.00;;;;;;5090668;28;20825;-46
2022/10/18 08:03:29;;;;;;;52.60;21.87;;;13.60;1.00;;;;;;5089625;28;20196;-46
2022/10/18 08:05:54;;;;;;;43.00;19.20;;;13.60;1.00;;;;;;5090098;28;20435;-46
2022/10/18 08:08:21;;;;;;;45.17;21.93;;;13.60;1.00;;;;;;5093161;28;20182;-46
2022/10/18 08:10:47;;;;;;;39.60;18.40;;;13.70;1.00;;;;;;5092015;28;20763;-46
2022/10/18 08:13:13;;;;;;;47.80;19.27;;;13.80;1.00;;;;;;5091510;28;20447;-46
2022/10/18 08:15:38;;;;;;;42.00;18.63;;;13.80;1.00;;;;;;5125379;27;20197;-46
2022/10/18 08:18:04;;;;;;;40.50;18.67;;;13.80;1.00;;;;;;5093561;28;20191;-46
2022/10/18 08:20:32;;;;;;;41.97;19.03;;;13.80;1.00;;;;;;5093134;28;20236;-46
2022/10/18 08:22:58;;;;;;;44.03;18.97;;;13.90;1.00;;;;;;5092807;28;20189;-46
2022/10/18 08:25:24;;;;;;;38.93;16.17;;;13.90;1.00;;;;;;5094617;28;20975;-46
2022/10/18 08:27:49;;;;;;;37.03;17.03;;;13.90;1.00;;;;;;5093087;28;20427;-45
2022/10/18 08:30:15;;;;;;;38.40;16.20;;;14.00;1.00;;;;;;5093136;28;20219;-46
2022/10/18 08:32:41;;;;;;;38.00;16.60;;;14.00;1.00;;;;;;5097228;27;20268;-45
2022/10/18 08:35:07;;;;;;;34.13;15.67;;;14.10;1.00;;;;;;5092059;28;20208;-45
2022/10/18 08:37:33;;;;;;;35.93;16.23;;;14.10;1.00;;;;;;5093742;28;20592;-45
2022/10/18 08:39:58;;;;;;;33.13;16.33;;;14.10;1.00;;;;;;5093398;28;20232;-45
2022/10/18 08:42:27;;;;;;;32.50;16.50;;;14.20;1.00;;;;;;5093475;28;20403;-45
2022/10/18 08:44:53;;;;;;;32.97;16.20;;;14.20;1.00;;;;;;5092937;28;20188;-46
2022/10/18 08:47:23;;;;;;;36.47;17.43;;;14.30;1.00;;;;;;5080832;28;20438;-45
2022/10/18 08:49:53;;;;;;;30.77;14.77;;;14.40;1.00;;;;;;5102678;28;20542;-45
2022/10/18 08:52:32;;;;;;;29.87;15.10;;;14.30;1.00;;;;;;5093127;28;20408;-45
2022/10/18 08:55:02;;;;;;;35.57;15.40;;;14.30;1.00;;;;;;5088761;28;20450;-45
2022/10/18 08:57:30;;;;;;;27.97;16.87;;;14.30;1.00;;;;;;5084723;28;20431;-46
2022/10/18 08:59:55;;;;;;;33.37;15.50;;;14.30;1.00;;;;;;5091752;28;20612;-45
2022/10/18 09:02:42;;;;;;;28.80;14.70;;;14.30;1.00;;;;;;5092371;28;20529;-45
2022/10/18 09:05:13;;;;;;;26.87;15.00;;;14.30;99.90;;;;;;5090135;28;20196;-45
2022/10/18 09:08:17;;;;;;;31.57;14.90;;;14.20;1.00;;;;;;5090072;28;20526;-45
2022/10/18 09:11:06;;;;;;;28.43;15.30;;;14.10;99.90;;;;;;5090245;28;20486;-45
2022/10/18 09:14:12;;;;;;;25.77;14.30;;;14.20;1.00;;;;;;5089417;28;21156;-46
2022/10/18 09:16:53;;;;;;;27.57;13.77;;;14.30;1.00;;;;;;5087380;28;20443;-44
2022/10/18 09:19:27;;;;;;;28.93;13.73;;;14.40;99.90;;;;;;5092674;28;20912;-45
2022/10/18 09:21:57;;;;;;;22.30;13.17;;;14.40;99.90;;;;;;5093114;28;20438;-45
2022/10/18 09:24:37;;;;;;;31.00;14.07;;;14.50;99.90;;;;;;5091910;28;20469;-46
2022/10/18 09:27:10;;;;;;;23.73;13.17;;;14.60;99.90;;;;;;5093033;28;20438;-45
2022/10/18 09:29:45;;;;;;;33.33;14.70;;;14.60;99.90;;;;;;5092471;28;20427;-45
2022/10/18 09:32:23;;;;;;;24.57;12.77;;;14.60;99.90;;;;;;5092524;28;20414;-45
2022/10/18 09:34:56;;;;;;;24.43;13.77;;;14.60;99.90;;;;;;5092413;28;20779;-45
2022/10/18 09:37:26;;;;;;;32.50;13.73;;;14.50;99.90;;;;;;5092403;28;20812;-45
2022/10/18 09:40:14;;;;;;;24.30;13.60;;;14.50;99.90;;;;;;5092242;28;20482;-45
2022/10/18 09:42:50;;;;;;;30.63;13.90;;;14.50;99.90;;;;;;5090040;28;20834;-45
2022/10/18 09:45:36;;;;;;;23.27;13.10;;;14.50;99.90;;;;;;5090852;28;20429;-45
2022/10/18 09:48:07;;;;;;;27.10;12.70;;;14.60;99.90;;;;;;5092316;28;20411;-45
2022/10/18 09:50:46;;;;;;;32.43;11.87;;;14.70;99.90;;;;;;5092389;28;20421;-45
2022/10/18 09:53:24;;;;;;;26.53;13.77;;;14.90;99.90;;;;;;5092261;28;20406;-45
2022/10/18 09:56:08;;;;;;;21.47;13.80;;;15.10;99.90;;;;;;5092031;28;20419;-46
2022/10/18 09:58:46;;;;;;;21.90;12.27;;;15.10;1.00;;;;;;5092357;28;20482;-46
2022/10/18 10:01:23;;;;;;;24.27;14.43;;;15.20;1.00;;;;;;5092014;28;20455;-45
2022/10/18 10:03:48;;;;;;;24.03;15.00;;;15.50;1.00;;;;;;5092096;28;20410;-45
2022/10/18 10:06:21;;;;;;;30.03;15.20;;;15.70;99.90;;;;;;5092005;28;20407;-45
2022/10/18 10:08:52;;;;;;;39.57;21.30;;;15.80;91.80;;;;;;5091797;28;20173;-45
2022/10/18 10:11:39;;;;;;;25.43;14.87;;;15.90;21.80;;;;;;5073643;28;20480;-45
2022/10/18 10:14:07;;;;;;;25.67;15.13;;;15.80;99.90;;;;;;5071333;28;20444;-45
2022/10/18 10:16:41;;;;;;;26.20;15.17;;;15.70;1.00;;;;;;5071322;28;20910;-45
2022/10/18 10:19:34;;;;;;;24.93;13.80;;;16.30;99.90;;;;;;5071489;28;20435;-45
2022/10/18 10:22:09;;;;;;;20.30;12.50;;;17.00;99.90;;;;;;5070559;28;20421;-45
2022/10/18 10:24:45;;;;;;;22.53;12.07;;;17.70;1.00;;;;;;5070791;28;20420;-45
2022/10/18 10:27:16;;;;;;;20.80;11.37;;;18.10;99.90;;;;;;5067733;28;20461;-46
2022/10/18 10:29:44;;;;;;;16.80;10.30;;;18.10;99.90;;;;;;5070466;28;20412;-45
2022/10/18 10:32:15;;;;;;;22.40;11.20;;;18.40;1.00;;;;;;5065383;28;20463;-55
2022/10/18 10:34:41;;;;;;;19.40;9.03;;;19.00;1.00;;;;;;5070344;28;20428;-56
2022/10/18 10:37:27;;;;;;;16.50;9.63;;;20.20;99.90;;;;;;5068621;28;20439;-57
2022/10/18 10:40:32;;;;;;;18.80;10.60;;;21.30;99.90;;;;;;5066624;28;20467;-55
2022/10/18 10:43:13;;;;;;;19.43;8.77;;;22.20;99.90;;;;;;5071016;28;20471;-56
2022/10/18 10:46:02;;;;;;;15.07;9.47;;;22.30;99.90;;;;;;5069680;28;20451;-56
2022/10/18 10:48:32;;;;;;;16.53;9.03;;;22.30;99.90;;;;;;5069426;28;20439;-56
2022/10/18 10:51:09;;;;;;;13.40;8.90;;;22.20;99.90;;;;;;5068182;28;20451;-57
2022/10/18 10:53:56;;;;;;;16.80;9.03;;;21.60;99.90;;;;;;5070741;28;20463;-56
2022/10/18 10:56:28;;;;;;;16.03;9.23;;;21.60;99.90;;;;;;5074507;28;20434;-57
2022/10/18 10:58:55;;;;;;;17.00;9.50;;;22.50;1.00;;;;;;5070202;28;20436;-57
2022/10/18 11:01:31;;;;;;;12.27;7.93;;;23.90;1.00;;;;;;5071771;28;20798;-56
2022/10/18 11:04:00;;;;;;;16.40;8.40;;;23.60;1.00;;;;;;5068633;28;20431;-53
2022/10/18 11:06:38;;;;;;;16.50;9.03;;;23.40;1.00;;;;;;5071962;28;20435;-45
2022/10/18 11:09:23;;;;;;;17.23;7.57;;;23.10;1.00;;;;;;5066912;28;20916;-47
2022/10/18 11:12:01;;;;;;;17.23;7.70;;;23.30;1.00;;;;;;5090928;28;20430;-46
2022/10/18 11:14:34;;;;;;;16.00;8.23;;;24.10;1.00;;;;;;5090280;28;20422;-45
2022/10/18 11:17:18;;;;;;;11.63;7.30;;;25.00;1.00;;;;;;5099694;28;20430;-57
2022/10/18 11:20:11;;;;;;;12.93;7.10;;;25.80;1.00;;;;;;5089930;28;20450;-57
2022/10/18 11:23:02;;;;;;;12.57;6.37;;;26.50;1.00;;;;;;5090587;28;20423;-57
2022/10/18 11:26:08;;;;;;;13.13;5.87;;;25.70;1.00;;;;;;5089903;28;20525;-57
2022/10/18 11:28:56;;;;;;;13.43;6.17;;;24.20;1.00;;;;;;5032342;28;20430;-57
2022/10/18 11:31:49;;;;;;;15.70;5.80;;;23.20;1.00;;;;;;5089465;28;20533;-57
2022/10/18 11:34:45;;;;;;;16.17;6.80;;;22.30;1.00;;;;;;5076797;28;20423;-58
2022/10/18 11:37:33;;;;;;;12.27;7.23;;;22.20;1.00;;;;;;5090791;28;20506;-56
2022/10/18 11:40:20;;;;;;;17.07;6.27;;;22.80;1.00;;;;;;5090576;28;20454;-58
2022/10/18 11:43:06;;;;;;;15.90;6.60;;;24.00;1.00;;;;;;5092511;28;20414;-57
2022/10/18 11:45:43;;;;;;;13.97;5.87;;;25.30;1.00;;;;;;5093847;28;20422;-58
2022/10/18 11:48:35;;;;;;;14.67;6.37;;;26.20;1.00;;;;;;5093124;28;20799;-57
2022/10/18 11:51:28;;;;;;;18.63;6.47;;;26.60;1.00;;;;;;5092976;28;20434;-58
2022/10/18 11:54:36;;;;;;;16.07;7.40;;;26.30;1.00;;;;;;5091713;28;20438;-57
2022/10/18 11:57:34;;;;;;;12.63;6.30;;;25.70;1.00;;;;;;5054028;28;20431;-57
2022/10/18 12:00:08;;;;;;;16.33;6.50;;;24.90;1.00;;;;;;5090153;28;20463;-57
2022/10/18 12:02:39;;;;;;;12.10;6.23;;;23.10;1.00;;;;;;5094800;28;20433;-56
2022/10/18 12:05:07;;;;;;;14.20;6.30;;;22.20;1.00;;;;;;5097525;28;20787;-57
2022/10/18 12:07:38;;;;;;;17.83;6.50;;;22.20;1.00;;;;;;5093809;28;20422;-57
2022/10/18 12:10:07;;;;;;;15.13;6.77;;;21.90;1.00;;;;;;5113759;28;21083;-56
2022/10/18 12:12:47;;;;;;;13.27;6.33;;;21.60;1.00;;;;;;5095145;28;20476;-57
2022/10/18 12:15:21;;;;;;;12.70;5.63;;;21.60;1.00;;;;;;5091649;28;21053;-57
2022/10/18 12:18:04;;;;;;;10.77;4.00;;;23.10;1.00;;;;;;5094202;28;20510;-57
2022/10/18 12:20:33;;;;;;;9.60;3.20;;;23.80;1.00;;;;;;5088305;28;20465;-56
2022/10/18 12:23:08;;;;;;;9.30;2.50;;;24.10;1.00;;;;;;5090328;28;20808;-56
2022/10/18 12:25:37;;;;;;;10.20;3.43;;;24.30;1.00;;;;;;5089245;28;20524;-57
2022/10/18 12:28:14;;;;;;;9.83;3.47;;;24.20;1.00;;;;;;5087904;28;20423;-57
2022/10/18 12:30:55;;;;;;;10.27;3.17;;;23.80;1.00;;;;;;5092169;28;20446;-56
2022/10/18 12:33:26;;;;;;;11.90;2.93;;;23.10;1.00;;;;;;5088565;28;20448;-57
2022/10/18 12:36:14;;;;;;;7.43;2.87;;;23.40;1.00;;;;;;5093642;28;20442;-57
2022/10/18 12:38:43;;;;;;;13.33;3.23;;;24.20;1.00;;;;;;5093511;28;20445;-57
2022/10/18 12:41:25;;;;;;;11.00;3.63;;;24.70;1.00;;;;;;5094206;28;20463;-57
2022/10/18 12:44:15;;;;;;;8.67;2.27;;;25.40;1.00;;;;;;5095969;28;20806;-58
2022/10/18 12:46:55;;;;;;;8.73;3.03;;;25.60;1.00;;;;;;5089855;28;20434;-57
2022/10/18 12:49:30;;;;;;;11.83;2.60;;;25.20;1.00;;;;;;5085573;28;20417;-58
2022/10/18 12:51:58;;;;;;;9.67;2.47;;;24.90;1.00;;;;;;5093443;28;20453;-58